createdAt,value
2017-10-30T00:00:21.866Z,6.77
2017-10-30T00:01:21.831Z,6.88
2017-10-30T00:02:21.813Z,6.75
2017-10-30T00:03:21.824Z,6.72
2017-10-30T00:04:21.768Z,6.84
2017-10-30T00:05:21.836Z,6.82
2017-10-30T00:06:21.728Z,6.78
2017-10-30T00:07:21.735Z,6.74
2017-10-30T00:08:21.691Z,6.78
2017-10-30T00:09:21.661Z,6.70
2017-10-30T00:10:21.649Z,6.74
2017-10-30T00:11:21.613Z,6.75
2017-10-30T00:12:21.641Z,6.69
2017-10-30T00:13:21.588Z,6.69
2017-10-30T00:14:21.569Z,6.67
2017-10-30T00:15:21.535Z,6.67
2017-10-30T00:16:21.509Z,6.62
2017-10-30T00:17:21.523Z,6.64
2017-10-30T00:18:21.467Z,6.70
2017-10-30T00:19:21.440Z,6.77
2017-10-30T00:20:21.417Z,6.77
2017-10-30T00:21:21.411Z,6.75
2017-10-30T00:22:21.418Z,6.74
2017-10-30T00:23:21.354Z,6.81
2017-10-30T00:24:21.343Z,6.81
2017-10-30T00:25:21.309Z,6.81
2017-10-30T00:26:21.294Z,6.74
2017-10-30T00:27:32.893Z,6.77
2017-10-30T00:28:21.249Z,6.75
2017-10-30T00:29:21.229Z,6.75
2017-10-30T00:30:21.199Z,6.77
2017-10-30T00:31:21.180Z,6.70
2017-10-30T00:32:21.162Z,6.75
2017-10-30T00:33:21.190Z,6.74
2017-10-30T00:34:21.120Z,6.66
2017-10-30T00:35:21.094Z,6.64
2017-10-30T00:36:21.070Z,6.66
2017-10-30T00:37:21.047Z,6.64
2017-10-30T00:38:21.076Z,6.64
2017-10-30T00:39:21.017Z,6.66
2017-10-30T00:40:21.028Z,6.63
2017-10-30T00:41:20.966Z,6.60
2017-10-30T00:42:20.938Z,6.62
2017-10-30T00:43:20.933Z,6.60
2017-10-30T00:44:20.944Z,6.63
2017-10-30T00:45:20.884Z,6.66
2017-10-30T00:46:20.854Z,6.63
2017-10-30T00:47:20.829Z,6.69
2017-10-30T00:48:30.370Z,6.64
2017-10-30T00:49:20.848Z,6.66
2017-10-30T00:50:20.764Z,6.67
2017-10-30T00:51:20.743Z,6.69
2017-10-30T00:52:20.724Z,6.78
2017-10-30T00:53:20.702Z,6.74
2017-10-30T00:54:20.721Z,6.74
2017-10-30T00:55:20.699Z,6.75
2017-10-30T00:56:20.634Z,6.78
2017-10-30T00:57:20.616Z,6.79
2017-10-30T00:58:20.590Z,6.84
2017-10-30T00:59:20.568Z,6.84
2017-10-30T01:00:20.580Z,6.82
2017-10-30T01:01:20.562Z,6.89
2017-10-30T01:02:20.502Z,6.89
2017-10-30T01:03:20.486Z,6.93
2017-10-30T01:04:20.536Z,6.96
2017-10-30T01:05:20.442Z,6.97
2017-10-30T01:06:20.417Z,6.99
2017-10-30T01:07:20.394Z,7.02
2017-10-30T01:08:20.373Z,7.03
2017-10-30T01:09:20.398Z,7.03
2017-10-30T01:10:20.328Z,7.05
2017-10-30T01:11:20.305Z,7.02
2017-10-30T01:12:20.290Z,7.02
2017-10-30T01:13:20.271Z,7.11
2017-10-30T01:14:20.288Z,7.10
2017-10-30T01:15:20.221Z,7.05
2017-10-30T01:16:20.198Z,7.13
2017-10-30T01:17:20.178Z,7.06
2017-10-30T01:18:20.157Z,7.11
2017-10-30T01:19:20.180Z,7.17
2017-10-30T01:20:29.924Z,7.13
2017-10-30T01:21:30.959Z,7.03
2017-10-30T01:22:20.073Z,7.07
2017-10-30T01:23:20.102Z,7.17
2017-10-30T01:24:20.038Z,7.07
2017-10-30T01:25:20.007Z,7.11
2017-10-30T01:26:19.980Z,7.15
2017-10-30T01:27:20.003Z,7.06
2017-10-30T01:28:19.938Z,7.00
2017-10-30T01:29:19.918Z,6.95
2017-10-30T01:30:19.904Z,6.99
2017-10-30T01:31:19.876Z,6.87
2017-10-30T01:32:19.893Z,6.88
2017-10-30T01:33:19.831Z,6.92
2017-10-30T01:34:19.809Z,6.89
2017-10-30T01:35:19.788Z,6.75
2017-10-30T01:36:19.771Z,6.87
2017-10-30T01:37:19.786Z,6.78
2017-10-30T01:38:19.723Z,6.77
2017-10-30T01:39:19.698Z,6.82
2017-10-30T01:40:19.680Z,6.78
2017-10-30T01:41:19.658Z,6.74
2017-10-30T01:42:19.685Z,6.77
2017-10-30T01:43:19.616Z,6.77
2017-10-30T01:44:19.602Z,6.75
2017-10-30T01:45:19.573Z,6.74
2017-10-30T01:46:19.549Z,6.77
2017-10-30T01:47:19.588Z,6.70
2017-10-30T01:48:19.505Z,6.67
2017-10-30T01:49:19.499Z,6.64
2017-10-30T01:50:19.471Z,6.60
2017-10-30T01:51:19.442Z,6.64
2017-10-30T01:52:19.463Z,6.69
2017-10-30T01:53:19.397Z,6.69
2017-10-30T01:54:19.375Z,6.60
2017-10-30T01:55:19.360Z,6.59
2017-10-30T01:56:19.334Z,6.64
2017-10-30T01:57:19.346Z,6.52
2017-10-30T01:58:19.292Z,6.54
2017-10-30T01:59:19.308Z,6.59
2017-10-30T02:00:19.243Z,6.60
2017-10-30T02:01:19.228Z,6.52
2017-10-30T02:02:19.210Z,6.63
2017-10-30T02:03:19.178Z,6.60
2017-10-30T02:04:19.197Z,6.57
2017-10-30T02:05:19.141Z,6.60
2017-10-30T02:06:27.068Z,6.63
2017-10-30T02:07:30.040Z,6.62
2017-10-30T02:08:19.078Z,6.52
2017-10-30T02:09:19.092Z,6.56
2017-10-30T02:10:19.030Z,6.46
2017-10-30T02:11:30.581Z,6.52
2017-10-30T02:12:18.993Z,6.51
2017-10-30T02:13:19.013Z,6.51
2017-10-30T02:14:18.940Z,6.48
2017-10-30T02:15:18.930Z,6.46
2017-10-30T02:16:18.946Z,6.51
2017-10-30T02:17:18.879Z,6.52
2017-10-30T02:18:18.854Z,6.48
2017-10-30T02:19:18.829Z,6.64
2017-10-30T02:20:18.806Z,6.48
2017-10-30T02:21:18.826Z,6.60
2017-10-30T02:22:18.767Z,6.59
2017-10-30T02:23:18.746Z,6.62
2017-10-30T02:24:18.766Z,6.56
2017-10-30T02:25:18.697Z,6.56
2017-10-30T02:26:18.676Z,6.57
2017-10-30T02:27:18.653Z,6.59
2017-10-30T02:28:18.633Z,6.62
2017-10-30T02:29:18.644Z,6.64
2017-10-30T02:30:18.593Z,6.60
2017-10-30T02:31:18.600Z,6.66
2017-10-30T02:32:18.545Z,6.63
2017-10-30T02:33:18.528Z,6.67
2017-10-30T02:34:18.504Z,6.63
2017-10-30T02:35:18.482Z,6.72
2017-10-30T02:36:18.498Z,6.72
2017-10-30T02:37:18.435Z,6.79
2017-10-30T02:38:18.416Z,6.74
2017-10-30T02:39:18.396Z,6.77
2017-10-30T02:40:18.415Z,6.78
2017-10-30T02:41:18.357Z,6.75
2017-10-30T02:42:18.332Z,6.77
2017-10-30T02:43:18.308Z,6.78
2017-10-30T02:44:18.295Z,6.77
2017-10-30T02:45:18.295Z,6.82
2017-10-30T02:46:18.244Z,6.78
2017-10-30T02:47:18.224Z,6.70
2017-10-30T02:48:18.204Z,6.79
2017-10-30T02:49:18.221Z,6.81
2017-10-30T02:50:18.154Z,6.69
2017-10-30T02:51:18.134Z,6.70
2017-10-30T02:52:18.120Z,6.66
2017-10-30T02:53:18.134Z,6.64
2017-10-30T02:54:18.070Z,6.59
2017-10-30T02:55:18.046Z,6.56
2017-10-30T02:56:18.028Z,6.62
2017-10-30T02:57:18.002Z,6.57
2017-10-30T02:58:18.015Z,6.51
2017-10-30T02:59:17.966Z,6.51
2017-10-30T03:00:17.936Z,6.51
2017-10-30T03:01:17.959Z,6.49
2017-10-30T03:02:17.892Z,6.57
2017-10-30T03:03:17.919Z,6.54
2017-10-30T03:04:17.850Z,6.46
2017-10-30T03:05:17.847Z,6.41
2017-10-30T03:08:01.162Z,6.41
2017-10-30T03:09:01.102Z,6.42
2017-10-30T03:10:01.112Z,6.28
2017-10-30T03:11:01.058Z,6.44
2017-10-30T03:12:01.074Z,6.41
2017-10-30T03:13:01.012Z,6.38
2017-10-30T03:14:00.990Z,6.30
2017-10-30T03:15:00.965Z,6.20
2017-10-30T03:16:00.949Z,6.30
2017-10-30T03:17:00.961Z,6.26
2017-10-30T03:18:00.905Z,6.24
2017-10-30T03:19:10.440Z,6.24
2017-10-30T03:20:00.856Z,6.26
2017-10-30T03:21:00.836Z,6.26
2017-10-30T03:22:00.845Z,6.22
2017-10-30T03:23:00.842Z,6.24
2017-10-30T03:24:00.767Z,6.26
2017-10-30T03:25:00.761Z,6.30
2017-10-30T03:26:00.720Z,6.35
2017-10-30T03:27:00.702Z,6.33
2017-10-30T03:28:00.713Z,6.42
2017-10-30T03:29:00.710Z,6.39
2017-10-30T03:30:00.632Z,6.31
2017-10-30T03:31:00.619Z,6.28
2017-10-30T03:32:00.597Z,6.31
2017-10-30T03:33:00.566Z,6.30
2017-10-30T03:34:00.581Z,6.35
2017-10-30T03:35:00.528Z,6.41
2017-10-30T03:36:00.550Z,6.42
2017-10-30T03:37:00.487Z,6.45
2017-10-30T03:38:00.462Z,6.48
2017-10-30T03:39:00.436Z,6.42
2017-10-30T03:40:00.417Z,6.42
2017-10-30T03:41:00.428Z,6.44
2017-10-30T03:42:00.408Z,6.46
2017-10-30T03:43:00.399Z,6.41
2017-10-30T03:44:00.325Z,6.41
2017-10-30T03:45:00.340Z,6.46
2017-10-30T03:46:00.317Z,6.49
2017-10-30T03:47:00.268Z,6.49
2017-10-30T03:48:00.300Z,6.52
2017-10-30T03:49:00.222Z,6.46
2017-10-30T03:50:00.203Z,6.51
2017-10-30T03:51:00.176Z,6.51
2017-10-30T03:52:00.147Z,6.59
2017-10-30T03:53:00.171Z,6.64
2017-10-30T03:54:00.113Z,6.62
2017-10-30T03:55:00.086Z,6.63
2017-10-30T03:56:00.067Z,6.57
2017-10-30T03:57:00.056Z,6.57
2017-10-30T03:58:00.490Z,6.63
2017-10-30T03:59:11.982Z,6.69
2017-10-30T04:00:10.517Z,6.67
2017-10-30T04:00:59.969Z,6.72
2017-10-30T04:01:59.938Z,6.69
2017-10-30T04:02:59.945Z,6.70
2017-10-30T04:03:59.893Z,6.74
2017-10-30T04:04:59.870Z,6.74
2017-10-30T04:05:59.855Z,6.75
2017-10-30T04:06:59.864Z,6.70
2017-10-30T04:07:59.811Z,6.78
2017-10-30T04:08:59.777Z,6.74
2017-10-30T04:09:59.755Z,6.74
2017-10-30T04:10:59.736Z,6.74
2017-10-30T04:11:59.759Z,6.69
2017-10-30T04:12:59.709Z,6.77
2017-10-30T04:13:59.672Z,6.67
2017-10-30T04:14:59.645Z,6.67
2017-10-30T04:15:59.624Z,6.60
2017-10-30T04:16:59.667Z,6.70
2017-10-30T04:17:59.581Z,6.64
2017-10-30T04:18:59.558Z,6.64
2017-10-30T04:19:59.536Z,6.66
2017-10-30T04:20:59.515Z,6.60
2017-10-30T04:21:59.534Z,6.48
2017-10-30T04:22:59.510Z,6.52
2017-10-30T04:23:59.458Z,6.54
2017-10-30T04:24:59.430Z,6.48
2017-10-30T04:25:59.445Z,6.51
2017-10-30T04:26:59.437Z,6.54
2017-10-30T04:27:59.373Z,6.56
2017-10-30T04:28:59.343Z,6.48
2017-10-30T04:29:59.325Z,6.52
2017-10-30T04:30:59.297Z,6.52
2017-10-30T04:31:59.313Z,6.48
2017-10-30T04:32:59.263Z,6.56
2017-10-30T04:33:59.239Z,6.57
2017-10-30T04:34:59.246Z,6.57
2017-10-30T04:35:59.239Z,6.60
2017-10-30T04:36:59.170Z,6.57
2017-10-30T04:37:59.144Z,6.57
2017-10-30T04:38:59.123Z,6.62
2017-10-30T04:39:59.101Z,6.59
2017-10-30T04:40:59.119Z,6.69
2017-10-30T04:41:59.064Z,6.69
2017-10-30T04:42:59.082Z,6.67
2017-10-30T04:43:59.015Z,6.64
2017-10-30T04:44:59.002Z,6.70
2017-10-30T04:45:58.970Z,6.64
2017-10-30T04:46:58.950Z,6.77
2017-10-30T04:47:58.971Z,6.69
2017-10-30T04:49:01.513Z,6.67
2017-10-30T04:49:58.888Z,6.75
2017-10-30T04:50:58.865Z,6.82
2017-10-30T04:52:08.556Z,6.79
2017-10-30T04:53:06.647Z,6.78
2017-10-30T04:53:58.816Z,6.77
2017-10-30T04:54:58.782Z,6.81
2017-10-30T04:55:58.807Z,6.75
2017-10-30T04:56:58.738Z,6.81
2017-10-30T04:57:58.712Z,6.72
2017-10-30T04:58:58.702Z,6.70
2017-10-30T04:59:58.683Z,6.77
2017-10-30T05:00:58.703Z,6.74
2017-10-30T05:01:58.626Z,6.69
2017-10-30T05:02:58.603Z,6.69
2017-10-30T05:03:58.584Z,6.60
2017-10-30T05:04:58.559Z,6.63
2017-10-30T05:05:58.576Z,6.56
2017-10-30T05:06:58.517Z,6.48
2017-10-30T05:07:58.527Z,6.48
2017-10-30T05:08:58.488Z,6.57
2017-10-30T05:09:58.460Z,6.48
2017-10-30T05:10:58.432Z,6.52
2017-10-30T05:11:58.409Z,6.46
2017-10-30T05:12:58.419Z,6.42
2017-10-30T05:13:58.364Z,6.35
2017-10-30T05:14:58.342Z,6.33
2017-10-30T05:15:58.324Z,6.35
2017-10-30T05:16:58.297Z,6.27
2017-10-30T05:17:58.306Z,6.17
2017-10-30T05:18:58.302Z,6.28
2017-10-30T05:19:58.239Z,6.20
2017-10-30T05:20:58.212Z,6.26
2017-10-30T05:21:58.193Z,6.28
2017-10-30T05:22:58.168Z,6.30
2017-10-30T05:23:58.200Z,6.24
2017-10-30T05:24:58.128Z,6.31
2017-10-30T05:25:58.143Z,6.36
2017-10-30T05:26:58.088Z,6.31
2017-10-30T05:27:58.061Z,6.35
2017-10-30T05:28:58.038Z,6.49
2017-10-30T05:29:58.015Z,6.44
2017-10-30T05:30:58.056Z,6.49
2017-10-30T05:31:57.979Z,6.48
2017-10-30T05:32:57.960Z,6.49
2017-10-30T05:33:57.932Z,6.60
2017-10-30T05:34:57.907Z,6.60
2017-10-30T05:35:57.944Z,6.60
2017-10-30T05:36:57.875Z,6.57
2017-10-30T05:37:57.844Z,6.64
2017-10-30T05:38:57.828Z,6.67
2017-10-30T05:39:57.804Z,6.57
2017-10-30T05:40:57.817Z,6.67
2017-10-30T05:41:57.757Z,6.66
2017-10-30T05:42:57.732Z,6.66
2017-10-30T05:43:57.728Z,6.67
2017-10-30T05:45:07.619Z,6.67
2017-10-30T05:45:57.710Z,6.62
2017-10-30T05:46:57.649Z,6.70
2017-10-30T05:47:57.621Z,6.70
2017-10-30T05:48:57.600Z,6.67
2017-10-30T05:49:57.578Z,6.63
2017-10-30T05:50:57.607Z,6.70
2017-10-30T05:51:57.580Z,6.67
2017-10-30T05:52:57.519Z,6.74
2017-10-30T05:53:57.492Z,6.75
2017-10-30T05:54:57.474Z,6.77
2017-10-30T05:55:57.448Z,6.72
2017-10-30T05:56:57.473Z,6.74
2017-10-30T05:57:57.407Z,6.74
2017-10-30T05:58:57.431Z,6.78
2017-10-30T05:59:57.363Z,6.75
2017-10-30T06:00:57.339Z,6.67
2017-10-30T06:01:57.324Z,6.64
2017-10-30T06:02:57.302Z,6.69
2017-10-30T06:03:57.315Z,6.69
2017-10-30T06:04:57.258Z,6.67
2017-10-30T06:05:57.273Z,6.64
2017-10-30T06:06:57.213Z,6.59
2017-10-30T06:08:07.671Z,6.62
2017-10-30T06:08:57.168Z,6.64
2017-10-30T06:09:57.155Z,6.64
2017-10-30T06:10:57.160Z,6.56
2017-10-30T06:11:57.137Z,6.57
2017-10-30T06:12:57.080Z,6.54
2017-10-30T06:13:57.094Z,6.51
2017-10-30T06:14:57.036Z,6.52
2017-10-30T06:15:57.019Z,6.56
2017-10-30T06:16:56.993Z,6.48
2017-10-30T06:17:56.976Z,6.52
2017-10-30T06:18:56.985Z,6.54
2017-10-30T06:19:56.927Z,6.56
2017-10-30T06:20:56.953Z,6.57
2017-10-30T06:21:56.887Z,6.62
2017-10-30T06:22:56.873Z,6.59
2017-10-30T06:23:56.841Z,6.63
2017-10-30T06:24:56.818Z,6.66
2017-10-30T06:25:56.845Z,6.69
2017-10-30T06:26:56.774Z,6.72
2017-10-30T06:27:56.757Z,6.75
2017-10-30T06:28:56.732Z,6.81
2017-10-30T06:29:56.719Z,6.75
2017-10-30T06:30:56.861Z,6.78
2017-10-30T06:31:56.667Z,6.87
2017-10-30T06:32:56.645Z,6.89
2017-10-30T06:33:56.633Z,6.89
2017-10-30T06:34:56.601Z,6.92
2017-10-30T06:35:56.626Z,6.88
2017-10-30T06:36:56.599Z,6.82
2017-10-30T06:38:08.192Z,7.02
2017-10-30T06:38:56.525Z,7.00
2017-10-30T06:39:56.541Z,6.99
2017-10-30T06:40:56.480Z,7.00
2017-10-30T06:41:56.457Z,7.06
2017-10-30T06:42:56.432Z,7.03
2017-10-30T06:43:56.409Z,7.14
2017-10-30T06:44:56.425Z,7.10
2017-10-30T06:45:56.366Z,7.05
2017-10-30T06:46:56.352Z,7.14
2017-10-30T06:47:56.354Z,7.14
2017-10-30T06:48:56.311Z,7.13
2017-10-30T06:49:56.274Z,7.15
2017-10-30T06:50:56.266Z,7.17
2017-10-30T06:51:56.285Z,7.18
2017-10-30T06:52:56.216Z,7.20
2017-10-30T06:53:56.193Z,7.23
2017-10-30T06:54:56.172Z,7.28
2017-10-30T06:55:56.148Z,7.23
2017-10-30T06:56:56.162Z,7.28
2017-10-30T06:57:56.108Z,7.25
2017-10-30T06:58:56.100Z,7.36
2017-10-30T06:59:56.059Z,7.36
2017-10-30T07:00:56.046Z,7.39
2017-10-30T07:01:56.050Z,7.42
2017-10-30T07:02:55.997Z,7.40
2017-10-30T07:03:55.974Z,7.48
2017-10-30T07:04:55.949Z,7.42
2017-10-30T07:05:55.940Z,7.39
2017-10-30T07:06:55.960Z,7.43
2017-10-30T07:07:55.929Z,7.42
2017-10-30T07:08:55.872Z,7.53
2017-10-30T07:09:55.927Z,7.51
2017-10-30T07:10:55.827Z,7.58
2017-10-30T07:11:55.813Z,7.54
2017-10-30T07:12:55.787Z,7.57
2017-10-30T07:13:55.826Z,7.54
2017-10-30T07:14:55.753Z,7.61
2017-10-30T07:15:55.720Z,7.61
2017-10-30T07:16:55.699Z,7.63
2017-10-30T07:17:55.680Z,7.51
2017-10-30T07:18:55.692Z,7.60
2017-10-30T07:19:55.635Z,7.58
2017-10-30T07:20:55.620Z,7.54
2017-10-30T07:22:05.222Z,7.57
2017-10-30T07:22:55.595Z,7.69
2017-10-30T07:23:55.592Z,7.61
2017-10-30T07:24:55.528Z,7.61
2017-10-30T07:25:55.511Z,7.76
2017-10-30T07:26:55.489Z,7.67
2017-10-30T07:27:55.539Z,7.77
2017-10-30T07:28:55.450Z,7.82
2017-10-30T07:29:55.435Z,7.87
2017-10-30T07:30:55.445Z,7.87
2017-10-30T07:31:55.393Z,7.94
2017-10-30T07:32:55.416Z,8.01
2017-10-30T07:33:55.391Z,8.06
2017-10-30T07:34:55.333Z,8.12
2017-10-30T07:35:55.307Z,8.18
2017-10-30T07:36:55.331Z,8.33
2017-10-30T07:37:55.258Z,8.27
2017-10-30T07:38:55.300Z,8.36
2017-10-30T07:39:55.274Z,8.37
2017-10-30T07:40:55.220Z,8.61
2017-10-30T07:41:55.207Z,8.78
2017-10-30T07:42:55.153Z,8.78
2017-10-30T07:43:55.133Z,8.67
2017-10-30T07:44:55.166Z,8.64
2017-10-30T07:45:55.096Z,8.64
2017-10-30T07:46:55.077Z,8.69
2017-10-30T07:47:55.049Z,8.55
2017-10-30T07:48:55.031Z,8.61
2017-10-30T07:50:02.840Z,8.58
2017-10-30T07:50:55.803Z,8.56
2017-10-30T07:51:54.974Z,8.70
2017-10-30T07:52:55.852Z,8.70
2017-10-30T07:53:54.933Z,8.64
2017-10-30T07:54:54.923Z,8.71
2017-10-30T07:55:54.927Z,8.63
2017-10-30T07:56:54.903Z,8.66
2017-10-30T07:57:54.849Z,8.71
2017-10-30T07:58:54.838Z,8.69
2017-10-30T07:59:54.818Z,8.71
2017-10-30T08:00:54.792Z,8.64
2017-10-30T08:01:54.806Z,8.63
2017-10-30T08:02:54.749Z,8.78
2017-10-30T08:03:54.738Z,9.31
2017-10-30T08:04:54.716Z,10.71
2017-10-30T08:05:54.690Z,12.12
2017-10-30T08:06:54.704Z,13.11
2017-10-30T08:07:54.670Z,13.75
2017-10-30T08:08:54.635Z,14.30
2017-10-30T08:09:54.620Z,14.86
2017-10-30T08:10:54.632Z,14.18
2017-10-30T08:11:54.625Z,13.47
2017-10-30T08:12:54.562Z,12.58
2017-10-30T08:13:54.544Z,12.03
2017-10-30T08:14:54.527Z,11.33
2017-10-30T08:15:54.513Z,11.18
2017-10-30T08:16:54.560Z,11.04
2017-10-30T08:17:54.473Z,10.87
2017-10-30T08:18:54.462Z,10.68
2017-10-30T08:19:54.454Z,10.53
2017-10-30T08:20:54.421Z,10.40
2017-10-30T08:21:54.454Z,10.12
2017-10-30T08:22:54.432Z,10.22
2017-10-30T08:24:04.325Z,10.07
2017-10-30T08:24:54.391Z,10.15
2017-10-30T08:25:54.335Z,10.09
2017-10-30T08:26:54.390Z,10.15
2017-10-30T08:27:54.322Z,10.15
2017-10-30T08:28:54.284Z,10.12
2017-10-30T08:29:54.263Z,10.13
2017-10-30T08:30:54.252Z,10.04
2017-10-30T08:31:54.277Z,10.04
2017-10-30T08:32:54.209Z,10.10
2017-10-30T08:33:54.209Z,10.17
2017-10-30T08:34:54.232Z,10.09
2017-10-30T08:35:54.179Z,10.12
2017-10-30T08:36:54.151Z,9.97
2017-10-30T08:37:54.124Z,9.95
2017-10-30T08:38:54.102Z,9.95
2017-10-30T08:39:54.148Z,9.83
2017-10-30T08:40:54.071Z,9.79
2017-10-30T08:41:54.057Z,9.86
2017-10-30T08:42:54.032Z,9.82
2017-10-30T08:43:54.019Z,9.73
2017-10-30T08:44:54.033Z,9.84
2017-10-30T08:45:54.030Z,9.94
2017-10-30T08:46:53.965Z,9.92
2017-10-30T08:47:53.946Z,9.87
2017-10-30T08:48:53.936Z,9.80
2017-10-30T08:49:53.905Z,9.77
2017-10-30T08:50:53.953Z,9.87
2017-10-30T08:51:53.871Z,9.91
2017-10-30T08:52:53.858Z,9.92
2017-10-30T08:53:53.836Z,9.92
2017-10-30T08:54:53.815Z,9.86
2017-10-30T08:55:53.838Z,9.98
2017-10-30T08:57:03.423Z,9.89
2017-10-30T08:57:53.781Z,9.97
2017-10-30T08:58:53.740Z,10.13
2017-10-30T08:59:53.717Z,10.60
2017-10-30T09:00:53.759Z,11.41
2017-10-30T09:01:53.691Z,12.82
2017-10-30T09:02:53.664Z,13.70
2017-10-30T09:03:53.644Z,14.48
2017-10-30T09:04:53.638Z,15.24
2017-10-30T09:05:53.658Z,15.49
2017-10-30T09:06:53.592Z,15.73
2017-10-30T09:07:53.577Z,16.35
2017-10-30T09:08:53.559Z,16.72
2017-10-30T09:09:53.546Z,16.72
2017-10-30T09:10:53.596Z,16.21
2017-10-30T09:11:53.516Z,15.61
2017-10-30T09:12:53.494Z,15.10
2017-10-30T09:13:53.477Z,16.02
2017-10-30T09:14:53.463Z,15.92
2017-10-30T09:15:53.511Z,14.92
2017-10-30T09:18:31.966Z,13.28
2017-10-30T09:19:31.937Z,12.79
2017-10-30T09:20:31.960Z,12.35
2017-10-30T09:21:31.949Z,12.00
2017-10-30T09:22:31.866Z,11.63
2017-10-30T09:23:31.856Z,11.51
2017-10-30T09:24:31.836Z,11.36
2017-10-30T09:25:31.832Z,11.27
2017-10-30T09:26:31.841Z,11.18
2017-10-30T09:27:31.796Z,11.14
2017-10-30T09:28:31.798Z,11.15
2017-10-30T09:29:31.757Z,11.08
2017-10-30T09:30:31.806Z,10.97
2017-10-30T09:31:41.627Z,10.97
2017-10-30T09:32:31.802Z,11.00
2017-10-30T09:33:31.695Z,11.05
2017-10-30T09:34:31.713Z,10.87
2017-10-30T09:35:31.709Z,10.94
2017-10-30T09:36:31.685Z,10.92
2017-10-30T09:37:31.689Z,10.90
2017-10-30T09:38:31.607Z,10.96
2017-10-30T09:39:31.598Z,11.05
2017-10-30T09:40:31.588Z,11.00
2017-10-30T09:41:31.607Z,11.43
2017-10-30T09:42:31.593Z,12.40
2017-10-30T09:43:31.523Z,13.75
2017-10-30T09:44:31.508Z,14.72
2017-10-30T09:45:32.115Z,15.43
2017-10-30T09:46:31.491Z,16.29
2017-10-30T09:47:31.531Z,15.88
2017-10-30T09:48:31.453Z,16.49
2017-10-30T09:49:31.426Z,16.38
2017-10-30T09:50:31.410Z,16.12
2017-10-30T09:51:31.403Z,16.28
2017-10-30T09:52:31.442Z,16.29
2017-10-30T09:53:31.400Z,15.40
2017-10-30T09:54:31.362Z,14.66
2017-10-30T09:55:31.334Z,14.07
2017-10-30T09:56:31.378Z,13.62
2017-10-30T09:57:41.178Z,13.33
2017-10-30T09:58:32.148Z,13.12
2017-10-30T09:59:31.288Z,12.72
2017-10-30T10:00:31.268Z,12.54
2017-10-30T10:01:31.314Z,12.58
2017-10-30T10:02:31.283Z,12.55
2017-10-30T10:03:31.218Z,12.64
2017-10-30T10:04:31.199Z,12.68
2017-10-30T10:05:31.183Z,12.76
2017-10-30T10:06:31.203Z,12.67
2017-10-30T10:07:31.248Z,12.65
2017-10-30T10:08:31.173Z,12.57
2017-10-30T10:09:41.211Z,12.61
2017-10-30T10:10:40.761Z,12.55
2017-10-30T10:11:31.092Z,12.62
2017-10-30T10:12:31.112Z,12.70
2017-10-30T10:13:31.116Z,12.60
2017-10-30T10:14:31.052Z,12.83
2017-10-30T10:15:31.052Z,12.90
2017-10-30T10:16:31.014Z,13.11
2017-10-30T10:17:31.010Z,13.12
2017-10-30T10:18:31.033Z,13.09
2017-10-30T10:19:30.963Z,12.91
2017-10-30T10:20:30.983Z,12.93
2017-10-30T10:21:30.951Z,13.13
2017-10-30T10:22:30.917Z,13.12
2017-10-30T10:23:30.957Z,13.23
2017-10-30T10:24:30.893Z,13.05
2017-10-30T10:25:30.878Z,13.25
2017-10-30T10:26:30.857Z,13.30
2017-10-30T10:27:30.844Z,13.11
2017-10-30T10:28:30.871Z,12.93
2017-10-30T10:29:30.809Z,12.83
2017-10-30T10:30:30.800Z,12.78
2017-10-30T10:31:30.835Z,12.60
2017-10-30T10:32:30.766Z,12.79
2017-10-30T10:33:30.784Z,12.83
2017-10-30T10:34:30.731Z,12.73
2017-10-30T10:35:30.719Z,12.87
2017-10-30T10:36:30.698Z,12.98
2017-10-30T10:37:30.687Z,12.94
2017-10-30T10:38:30.731Z,12.87
2017-10-30T10:39:30.659Z,12.75
2017-10-30T10:40:30.644Z,12.80
2017-10-30T10:41:30.626Z,12.79
2017-10-30T10:42:30.609Z,12.98
2017-10-30T10:43:30.627Z,13.22
2017-10-30T10:44:30.575Z,12.83
2017-10-30T10:45:30.558Z,13.22
2017-10-30T10:46:30.556Z,13.68
2017-10-30T10:47:30.528Z,14.00
2017-10-30T10:48:30.573Z,14.45
2017-10-30T10:49:30.502Z,14.68
2017-10-30T10:50:30.484Z,14.65
2017-10-30T10:51:30.470Z,14.63
2017-10-30T10:52:30.458Z,14.51
2017-10-30T10:53:30.476Z,14.68
2017-10-30T10:54:30.425Z,14.91
2017-10-30T10:55:30.411Z,14.96
2017-10-30T10:56:30.423Z,14.89
2017-10-30T10:57:30.374Z,14.99
2017-10-30T10:58:30.366Z,14.94
2017-10-30T10:59:30.341Z,14.77
2017-10-30T11:00:30.336Z,14.72
2017-10-30T11:01:30.352Z,14.86
2017-10-30T11:02:30.298Z,14.73
2017-10-30T11:03:40.306Z,14.84
2017-10-30T11:04:30.258Z,14.84
2017-10-30T11:05:30.239Z,14.91
2017-10-30T11:06:30.284Z,14.69
2017-10-30T11:07:30.208Z,14.70
2017-10-30T11:08:30.198Z,14.60
2017-10-30T11:09:30.171Z,14.50
2017-10-30T11:10:30.159Z,14.48
2017-10-30T11:11:30.188Z,14.20
2017-10-30T11:12:30.124Z,13.86
2017-10-30T11:13:30.109Z,13.38
2017-10-30T11:14:30.099Z,13.30
2017-10-30T11:15:30.076Z,13.11
2017-10-30T11:16:30.101Z,13.12
2017-10-30T11:17:30.046Z,13.12
2017-10-30T11:18:30.026Z,13.12
2017-10-30T11:19:30.015Z,13.13
2017-10-30T11:20:29.989Z,13.12
2017-10-30T11:21:30.013Z,13.22
2017-10-30T11:22:30.005Z,13.23
2017-10-30T11:23:29.963Z,13.08
2017-10-30T11:24:29.925Z,13.09
2017-10-30T11:25:29.909Z,13.13
2017-10-30T11:26:29.909Z,12.98
2017-10-30T11:27:29.921Z,13.00
2017-10-30T11:28:29.921Z,13.08
2017-10-30T11:29:29.847Z,13.11
2017-10-30T11:30:29.875Z,12.94
2017-10-30T11:31:29.821Z,13.11
2017-10-30T11:32:29.842Z,13.13
2017-10-30T11:33:29.778Z,13.16
2017-10-30T11:34:29.769Z,12.98
2017-10-30T11:35:29.772Z,13.12
2017-10-30T11:36:29.734Z,13.03
2017-10-30T11:37:29.751Z,13.09
2017-10-30T11:38:29.706Z,13.28
2017-10-30T11:39:29.729Z,13.33
2017-10-30T11:40:29.669Z,13.28
2017-10-30T11:41:29.648Z,13.15
2017-10-30T11:42:29.643Z,13.09
2017-10-30T11:43:29.632Z,12.95
2017-10-30T11:44:29.634Z,12.80
2017-10-30T11:45:29.592Z,12.97
2017-10-30T11:46:37.901Z,13.08
2017-10-30T11:47:29.560Z,13.23
2017-10-30T11:48:29.547Z,13.25
2017-10-30T11:49:29.522Z,13.25
2017-10-30T11:50:29.506Z,13.30
2017-10-30T11:51:29.492Z,13.39
2017-10-30T11:52:29.513Z,13.25
2017-10-30T11:53:29.452Z,13.18
2017-10-30T11:54:29.459Z,13.23
2017-10-30T11:55:39.386Z,13.12
2017-10-30T11:56:39.451Z,12.94
2017-10-30T11:57:29.425Z,12.87
2017-10-30T11:58:29.374Z,12.83
2017-10-30T11:59:29.390Z,12.94
2017-10-30T12:00:29.337Z,12.94
2017-10-30T12:01:29.332Z,12.86
2017-10-30T12:02:29.348Z,12.85
2017-10-30T12:03:29.288Z,12.86
2017-10-30T12:04:29.276Z,12.97
2017-10-30T12:05:29.276Z,12.75
2017-10-30T12:06:29.325Z,12.67
2017-10-30T12:07:29.226Z,12.70
2017-10-30T12:08:29.215Z,12.70
2017-10-30T12:09:29.195Z,12.62
2017-10-30T12:10:29.181Z,12.54
2017-10-30T12:11:29.211Z,12.40
2017-10-30T12:12:29.148Z,12.53
2017-10-30T12:13:29.122Z,12.36
2017-10-30T12:14:29.117Z,12.37
2017-10-30T12:15:29.132Z,12.35
2017-10-30T12:16:29.075Z,12.39
2017-10-30T12:17:29.064Z,12.32
2017-10-30T12:18:29.050Z,12.32
2017-10-30T12:19:29.022Z,12.17
2017-10-30T12:20:37.496Z,12.17
2017-10-30T12:21:28.995Z,12.15
2017-10-30T12:22:29.015Z,12.24
2017-10-30T12:23:28.961Z,12.24
2017-10-30T12:24:28.953Z,12.45
2017-10-30T12:25:28.933Z,12.40
2017-10-30T12:26:28.966Z,12.32
2017-10-30T12:27:28.910Z,12.37
2017-10-30T12:28:28.875Z,12.22
2017-10-30T12:29:28.865Z,12.22
2017-10-30T12:30:28.845Z,12.32
2017-10-30T12:31:28.873Z,12.22
2017-10-30T12:32:28.846Z,12.32
2017-10-30T12:33:28.792Z,12.18
2017-10-30T12:34:28.779Z,12.21
2017-10-30T12:35:28.808Z,12.20
2017-10-30T12:36:28.738Z,12.20
2017-10-30T12:37:28.741Z,12.27
2017-10-30T12:38:28.717Z,12.24
2017-10-30T12:39:28.687Z,12.15
2017-10-30T12:40:28.717Z,12.18
2017-10-30T12:41:28.657Z,12.09
2017-10-30T12:42:28.637Z,11.99
2017-10-30T12:43:28.667Z,12.09
2017-10-30T12:44:28.611Z,12.17
2017-10-30T12:45:28.642Z,12.25
2017-10-30T12:46:28.573Z,12.18
2017-10-30T12:47:28.564Z,12.15
2017-10-30T12:48:28.533Z,12.15
2017-10-30T12:49:28.517Z,12.17
2017-10-30T12:50:28.555Z,12.09
2017-10-30T12:51:28.494Z,12.15
2017-10-30T12:52:28.472Z,12.21
2017-10-30T12:53:28.455Z,12.36
2017-10-30T12:54:38.513Z,12.40
2017-10-30T12:55:28.487Z,12.47
2017-10-30T12:56:28.434Z,12.54
2017-10-30T12:57:28.427Z,12.53
2017-10-30T12:58:28.366Z,12.37
2017-10-30T12:59:28.346Z,12.36
2017-10-30T13:00:28.380Z,12.39
2017-10-30T13:01:28.319Z,12.50
2017-10-30T13:02:28.351Z,12.42
2017-10-30T13:03:28.274Z,12.45
2017-10-30T13:04:28.261Z,12.45
2017-10-30T13:05:28.245Z,12.58
2017-10-30T13:06:28.228Z,12.58
2017-10-30T13:07:28.261Z,12.67
2017-10-30T13:08:28.196Z,12.61
2017-10-30T13:09:28.193Z,12.62
2017-10-30T13:10:28.160Z,12.50
2017-10-30T13:11:28.160Z,12.55